Time;durP1;ratioP1;P1;durP2;ratioP2;P2;SDS_P1;SDS_P2;PMS_P1;PMS_P2;Temp;Humidity;BMP_temperature;BMP_pressure;BME280_temperature;BME280_humidity;BME280_pressure;Samples;Min_cycle;Max_cycle;Signal;HPM_P1;HPM_P2
2022/06/07 00:01:33;;;;;;;;;;;;;;;;;;5113241;28;828;-66
2022/06/07 00:03:59;;;;;;;;;;;;;;;;;;5111047;28;1190;-66
2022/06/07 00:06:24;;;;;;;;;;;;;;;;;;5111385;28;1230;-66
2022/06/07 00:08:51;;;;;;;;;;;;;;;;;;5112306;28;926;-66
2022/06/07 00:11:16;;;;;;;;;;;;;;;;;;5113050;28;915;-65
2022/06/07 00:13:42;;;;;;;;;;;;;;;;;;5111475;28;1241;-64
2022/06/07 00:16:07;;;;;;;;;;;;;;;;;;5111705;28;1914;-66
2022/06/07 00:18:32;;;;;;;;;;;;;;;;;;5112673;28;827;-66
2022/06/07 00:20:57;;;;;;;;;;;;;;;;;;5112389;28;903;-66
2022/06/07 00:23:23;;;;;;;;;;;;;;;;;;5113051;28;782;-65
2022/06/07 00:25:50;;;;;;;;;;;;;;;;;;5112566;28;872;-65
2022/06/07 00:28:15;;;;;;;;;;;;;;;;;;5111806;28;855;-66
2022/06/07 00:30:41;;;;;;;;;;;;;;;;;;5112528;28;789;-66
2022/06/07 00:33:06;;;;;;;;;;;;;;;;;;5111204;28;1118;-66
2022/06/07 00:35:32;;;;;;;;;;;;;;;;;;5112653;28;1978;-66
2022/06/07 00:37:57;;;;;;;;;;;;;;;;;;5111018;28;1208;-66
2022/06/07 00:40:22;;;;;;;;;;;;;;;;;;5112945;28;911;-66
2022/06/07 00:42:48;;;;;;;;;;;;;;;;;;5111873;28;966;-65
2022/06/07 00:45:14;;;;;;;;;;;;;;;;;;5110752;28;1190;-66
2022/06/07 00:47:40;;;;;;;;;;;;;;;;;;5110364;28;1457;-66
2022/06/07 00:50:11;;;;;;;;;;;;;;;;;;5111959;28;848;-66
2022/06/07 00:52:38;;;;;;;;;;;;;;;;;;5112052;28;832;-66
2022/06/07 00:55:05;;;;;;;;;;;;;;;;;;5111531;28;1969;-66
2022/06/07 00:57:31;;;;;;;;;;;;;;;;;;5111614;28;957;-66
2022/06/07 00:59:57;;;;;;;;;;;;;;;;;;5111969;28;832;-66
2022/06/07 01:02:22;;;;;;;;;;;;;;;;;;5112340;28;825;-66
2022/06/07 01:04:47;;;;;;;;;;;;;;;;;;5111704;28;903;-66
2022/06/07 01:12:41;;;;;;;;;;;;;;;;;;5111101;28;689;-66
2022/06/07 01:15:08;;;;;;;;;;;;;;;;;;5093402;28;1906;-66
2022/06/07 01:17:33;;;;;;;;;;;;;;;;;;5110451;28;918;-66
2022/06/07 01:19:58;;;;;;;;;;;;;;;;;;5111690;28;994;-66
2022/06/07 01:22:24;;;;;;;;;;;;;;;;;;5112238;28;828;-66
2022/06/07 01:24:49;;;;;;;;;;;;;;;;;;5111147;28;832;-66
2022/06/07 01:27:14;;;;;;;;;;;;;;;;;;5111846;28;800;-66
2022/06/07 01:29:42;;;;;;;;;;;;;;;;;;5105186;28;1206;-65
2022/06/07 01:32:08;;;;;;;;;;;;;;;;;;5080398;28;1554;-66
2022/06/07 01:34:33;;;;;;;;;;;;;;;;;;5112089;28;1999;-66
2022/06/07 01:36:59;;;;;;;;;;;;;;;;;;5115491;28;893;-65
2022/06/07 01:42:09;;;;;;;;;;;;;;;;;;5116206;28;626;-66
2022/06/07 01:44:39;;;;;;;;;;;;;;;;;;5114223;28;1304;-66
2022/06/07 01:47:07;;;;;;;;;;;;;;;;;;5116057;28;753;-66
2022/06/07 01:49:32;;;;;;;;;;;;;;;;;;5115785;28;765;-66
2022/06/07 01:51:58;;;;;;;;;;;;;;;;;;5115641;28;867;-66
2022/06/07 01:54:24;;;;;;;;;;;;;;;;;;5113939;28;1948;-66
2022/06/07 01:56:50;;;;;;;;;;;;;;;;;;5114300;28;1209;-66
2022/06/07 01:59:16;;;;;;;;;;;;;;;;;;5097021;28;1118;-66
2022/06/07 02:01:42;;;;;;;;;;;;;;;;;;5115526;28;926;-66
2022/06/07 02:04:08;;;;;;;;;;;;;;;;;;5115840;27;1014;-65
2022/06/07 02:06:33;;;;;;;;;;;;;;;;;;5115635;28;883;-66
2022/06/07 02:08:59;;;;;;;;;;;;;;;;;;5115341;28;832;-64
2022/06/07 02:11:25;;;;;;;;;;;;;;;;;;5114440;28;1042;-65
2022/06/07 02:13:52;;;;;;;;;;;;;;;;;;5114080;28;1388;-65
2022/06/07 02:16:18;;;;;;;;;;;;;;;;;;5115537;28;1894;-65
2022/06/07 02:18:43;;;;;;;;;;;;;;;;;;5115269;28;979;-65
2022/06/07 02:21:09;;;;;;;;;;;;;;;;;;5115393;28;812;-65
2022/06/07 02:23:35;;;;;;;;;;;;;;;;;;5115383;28;987;-66
2022/06/07 02:26:06;;;;;;;;;;;;;;;;;;5096452;28;1422;-65
2022/06/07 02:28:34;;;;;;;;;;;;;;;;;;5113034;28;1197;-65
2022/06/07 02:31:00;;;;;;;;;;;;;;;;;;5114356;27;840;-65
2022/06/07 02:33:26;;;;;;;;;;;;;;;;;;5114631;27;843;-65
2022/06/07 02:35:52;;;;;;;;;;;;;;;;;;5113112;28;1981;-65
2022/06/07 02:38:18;;;;;;;;;;;;;;;;;;5113442;28;908;-65
2022/06/07 02:40:46;;;;;;;;;;;;;;;;;;5113078;28;1157;-65
2022/06/07 02:43:12;;;;;;;;;;;;;;;;;;5112989;28;1308;-65
2022/06/07 02:45:37;;;;;;;;;;;;;;;;;;5115130;28;824;-65
2022/06/07 02:48:03;;;;;;;;;;;;;;;;;;5115180;28;991;-65
2022/06/07 02:50:29;;;;;;;;;;;;;;;;;;5114541;28;765;-66
2022/06/07 02:52:54;;;;;;;;;;;;;;;;;;5113294;28;1139;-66
2022/06/07 02:55:19;;;;;;;;;;;;;;;;;;5114028;28;1970;-65
2022/06/07 02:57:44;;;;;;;;;;;;;;;;;;5112561;28;951;-66
2022/06/07 03:00:11;;;;;;;;;;;;;;;;;;5113131;28;817;-66
2022/06/07 03:02:37;;;;;;;;;;;;;;;;;;5114723;27;1068;-66
2022/06/07 03:05:03;;;;;;;;;;;;;;;;;;5112747;28;821;-66
2022/06/07 03:07:28;;;;;;;;;;;;;;;;;;5114797;27;1193;-66
2022/06/07 03:09:53;;;;;;;;;;;;;;;;;;5112829;28;1488;-66
2022/06/07 03:12:18;;;;;;;;;;;;;;;;;;5113863;28;924;-67
2022/06/07 03:14:44;;;;;;;;;;;;;;;;;;5113810;28;1883;-66
2022/06/07 03:17:09;;;;;;;;;;;;;;;;;;5114338;28;883;-66
2022/06/07 03:19:34;;;;;;;;;;;;;;;;;;5112681;28;1077;-66
2022/06/07 03:21:59;;;;;;;;;;;;;;;;;;5113995;27;954;-66
2022/06/07 03:24:27;;;;;;;;;;;;;;;;;;5114146;28;1050;-66
2022/06/07 03:26:53;;;;;;;;;;;;;;;;;;5096136;28;1333;-66
2022/06/07 03:29:19;;;;;;;;;;;;;;;;;;5112795;28;770;-65
2022/06/07 03:31:44;;;;;;;;;;;;;;;;;;5113738;28;1058;-66
2022/06/07 03:34:09;;;;;;;;;;;;;;;;;;5113142;28;816;-66
2022/06/07 03:36:35;;;;;;;;;;;;;;;;;;5112078;28;1906;-66
2022/06/07 03:39:01;;;;;;;;;;;;;;;;;;5113929;28;927;-66
2022/06/07 03:41:28;;;;;;;;;;;;;;;;;;5116456;28;1180;-65
2022/06/07 03:43:53;;;;;;;;;;;;;;;;;;5116758;28;1061;-65
2022/06/07 03:46:20;;;;;;;;;;;;;;;;;;5117411;28;875;-65
2022/06/07 03:48:45;;;;;;;;;;;;;;;;;;5116457;28;777;-65
2022/06/07 03:51:12;;;;;;;;;;;;;;;;;;5115736;28;808;-65
2022/06/07 03:53:38;;;;;;;;;;;;;;;;;;5114227;28;1205;-65
2022/06/07 03:56:03;;;;;;;;;;;;;;;;;;5115069;28;1939;-65
2022/06/07 03:58:29;;;;;;;;;;;;;;;;;;5116667;28;828;-66
2022/06/07 04:01:01;;;;;;;;;;;;;;;;;;5117697;28;995;-65
2022/06/07 04:03:27;;;;;;;;;;;;;;;;;;5117041;28;887;-66
2022/06/07 04:05:52;;;;;;;;;;;;;;;;;;5117634;28;1070;-66
2022/06/07 04:08:18;;;;;;;;;;;;;;;;;;5116569;28;1042;-65
2022/06/07 04:10:47;;;;;;;;;;;;;;;;;;5114895;28;908;-66
2022/06/07 04:13:14;;;;;;;;;;;;;;;;;;5114100;28;1101;-66
2022/06/07 04:15:39;;;;;;;;;;;;;;;;;;5112486;28;1909;-66
2022/06/07 04:18:05;;;;;;;;;;;;;;;;;;5111723;28;915;-66
2022/06/07 04:20:30;;;;;;;;;;;;;;;;;;5113103;28;761;-64
2022/06/07 04:22:55;;;;;;;;;;;;;;;;;;5110875;28;1335;-66
2022/06/07 04:25:20;;;;;;;;;;;;;;;;;;5111238;28;1058;-66
2022/06/07 04:27:46;;;;;;;;;;;;;;;;;;5113005;28;852;-66
2022/06/07 04:30:11;;;;;;;;;;;;;;;;;;5111502;28;1194;-66
2022/06/07 04:32:39;;;;;;;;;;;;;;;;;;5111100;28;904;-66
2022/06/07 04:35:04;;;;;;;;;;;;;;;;;;5112221;28;1972;-66
2022/06/07 04:37:30;;;;;;;;;;;;;;;;;;5106434;28;1185;-66
2022/06/07 04:39:56;;;;;;;;;;;;;;;;;;5101402;28;1163;-66
2022/06/07 04:42:21;;;;;;;;;;;;;;;;;;5109135;28;1036;-66
2022/06/07 04:44:48;;;;;;;;;;;;;;;;;;5110888;28;1175;-66
2022/06/07 04:47:14;;;;;;;;;;;;;;;;;;5095995;28;1194;-66
2022/06/07 04:49:39;;;;;;;;;;;;;;;;;;5102528;28;1163;-66
2022/06/07 04:52:04;;;;;;;;;;;;;;;;;;5093161;28;1147;-66
2022/06/07 04:54:29;;;;;;;;;;;;;;;;;;5103414;28;1906;-66
2022/06/07 04:56:55;;;;;;;;;;;;;;;;;;5093421;28;1147;-66
2022/06/07 04:59:20;;;;;;;;;;;;;;;;;;5089081;28;1233;-66
2022/06/07 05:01:46;;;;;;;;;;;;;;;;;;5099058;28;1246;-66
2022/06/07 05:04:11;;;;;;;;;;;;;;;;;;5093614;28;1131;-65
2022/06/07 05:06:39;;;;;;;;;;;;;;;;;;5097348;28;1222;-65
2022/06/07 05:09:06;;;;;;;;;;;;;;;;;;5093394;28;1212;-65
2022/06/07 05:11:32;;;;;;;;;;;;;;;;;;5107561;28;1148;-66
2022/06/07 05:13:58;;;;;;;;;;;;;;;;;;5113051;28;1144;-66
2022/06/07 05:16:23;;;;;;;;;;;;;;;;;;5100071;28;2000;-66
2022/06/07 05:18:49;;;;;;;;;;;;;;;;;;5095599;28;920;-65
2022/06/07 05:21:14;;;;;;;;;;;;;;;;;;5094519;28;924;-66
2022/06/07 05:23:39;;;;;;;;;;;;;;;;;;5095419;28;958;-66
2022/06/07 05:26:10;;;;;;;;;;;;;;;;;;5096189;28;888;-66
2022/06/07 05:28:37;;;;;;;;;;;;;;;;;;5095637;28;904;-66
2022/06/07 05:31:03;;;;;;;;;;;;;;;;;;5096002;28;1027;-66
2022/06/07 05:33:28;;;;;;;;;;;;;;;;;;5095509;28;1061;-66
2022/06/07 05:35:53;;;;;;;;;;;;;;;;;;5095692;28;1918;-66
2022/06/07 05:38:20;;;;;;;;;;;;;;;;;;5095635;28;824;-66
2022/06/07 05:40:45;;;;;;;;;;;;;;;;;;5094308;28;844;-66
2022/06/07 05:43:10;;;;;;;;;;;;;;;;;;5077603;28;1314;-66
2022/06/07 05:45:36;;;;;;;;;;;;;;;;;;5093161;28;932;-66
2022/06/07 05:48:01;;;;;;;;;;;;;;;;;;5093202;28;1290;-66
2022/06/07 05:50:27;;;;;;;;;;;;;;;;;;5094753;28;586;-66
2022/06/07 05:52:52;;;;;;;;;;;;;;;;;;5075925;28;1427;-66
2022/06/07 05:55:17;;;;;;;;;;;;;;;;;;5094967;28;1956;-66
2022/06/07 05:57:49;;;;;;;;;;;;;;;;;;5093413;28;1246;-66
2022/06/07 06:00:14;;;;;;;;;;;;;;;;;;5095090;28;797;-66
2022/06/07 06:02:39;;;;;;;;;;;;;;;;;;5094845;28;844;-66
2022/06/07 06:05:05;;;;;;;;;;;;;;;;;;5093280;28;1030;-66
2022/06/07 06:07:30;;;;;;;;;;;;;;;;;;5093267;28;903;-66
2022/06/07 06:12:39;;;;;;;;;;;;;;;;;;5094078;28;710;-66
2022/06/07 06:15:04;;;;;;;;;;;;;;;;;;5092123;28;1913;-66
2022/06/07 06:17:30;;;;;;;;;;;;;;;;;;5092973;28;916;-66
2022/06/07 06:19:55;;;;;;;;;;;;;;;;;;5092603;28;1324;-66
2022/06/07 06:22:21;;;;;;;;;;;;;;;;;;5093236;28;1286;-66
2022/06/07 06:24:46;;;;;;;;;;;;;;;;;;5093984;28;837;-66
2022/06/07 06:27:12;;;;;;;;;;;;;;;;;;5093962;28;1103;-66
2022/06/07 06:29:37;;;;;;;;;;;;;;;;;;5092790;28;1014;-65
2022/06/07 06:32:03;;;;;;;;;;;;;;;;;;5093470;28;907;-67
2022/06/07 06:34:29;;;;;;;;;;;;;;;;;;5092865;28;1072;-67
2022/06/07 06:36:55;;;;;;;;;;;;;;;;;;5092775;28;1977;-67
2022/06/07 06:39:20;;;;;;;;;;;;;;;;;;5092394;28;1218;-67
2022/06/07 06:41:47;;;;;;;;;;;;;;;;;;5093164;28;810;-67
2022/06/07 06:44:12;;;;;;;;;;;;;;;;;;5092353;28;892;-67
2022/06/07 06:46:39;;;;;;;;;;;;;;;;;;5091923;28;1303;-67
2022/06/07 06:49:05;;;;;;;;;;;;;;;;;;5091735;28;1230;-67
2022/06/07 06:51:30;;;;;;;;;;;;;;;;;;5093882;28;840;-67
2022/06/07 06:53:56;;;;;;;;;;;;;;;;;;5092010;28;1347;-67
2022/06/07 06:56:22;;;;;;;;;;;;;;;;;;5093781;28;1953;-67
2022/06/07 06:58:49;;;;;;;;;;;;;;;;;;5093185;28;887;-67
2022/06/07 07:01:19;;;;;;;;;;;;;;;;;;5092053;28;1159;-67
2022/06/07 07:03:44;;;;;;;;;;;;;;;;;;5091522;28;1260;-67
2022/06/07 07:06:11;;;;;;;;;;;;;;;;;;5092267;28;983;-66
2022/06/07 07:08:38;;;;;;;;;;;;;;;;;;5092249;28;1221;-67
2022/06/07 07:11:12;;;;;;;;;;;;;;;;;;5091938;28;1336;-67
2022/06/07 07:13:38;;;;;;;;;;;;;;;;;;5100748;28;1210;-67
2022/06/07 07:16:05;;;;;;;;;;;;;;;;;;5112628;28;1960;-67
2022/06/07 07:18:31;;;;;;;;;;;;;;;;;;5105028;28;1292;-67
2022/06/07 07:20:56;;;;;;;;;;;;;;;;;;5100804;28;1226;-67
2022/06/07 07:23:24;;;;;;;;;;;;;;;;;;5098223;28;1155;-67
2022/06/07 07:25:49;;;;;;;;;;;;;;;;;;5071746;28;1257;-67
2022/06/07 07:28:14;;;;;;;;;;;;;;;;;;5091236;28;836;-67
2022/06/07 07:30:40;;;;;;;;;;;;;;;;;;5091642;28;821;-67
2022/06/07 07:33:05;;;;;;;;;;;;;;;;;;5092281;28;789;-67
2022/06/07 07:35:30;;;;;;;;;;;;;;;;;;5091208;28;1980;-67
2022/06/07 07:37:57;;;;;;;;;;;;;;;;;;5090918;28;1014;-67
2022/06/07 07:40:22;;;;;;;;;;;;;;;;;;5092941;28;885;-67
2022/06/07 07:42:48;;;;;;;;;;;;;;;;;;5090986;28;810;-66
2022/06/07 07:45:13;;;;;;;;;;;;;;;;;;5091315;28;979;-67
2022/06/07 07:47:39;;;;;;;;;;;;;;;;;;5104256;28;1203;-67
2022/06/07 07:50:04;;;;;;;;;;;;;;;;;;5090461;28;1104;-67
2022/06/07 07:52:29;;;;;;;;;;;;;;;;;;5091229;28;1191;-67
2022/06/07 07:54:55;;;;;;;;;;;;;;;;;;5085900;28;1917;-67
2022/06/07 07:57:20;;;;;;;;;;;;;;;;;;5091708;28;1223;-67
2022/06/07 07:59:45;;;;;;;;;;;;;;;;;;5091144;28;888;-67
2022/06/07 08:02:18;;;;;;;;;;;;;;;;;;5090685;28;1170;-67
2022/06/07 08:04:43;;;;;;;;;;;;;;;;;;5092241;28;852;-67
2022/06/07 08:07:09;;;;;;;;;;;;;;;;;;5090643;28;1354;-67
2022/06/07 08:09:34;;;;;;;;;;;;;;;;;;5091939;28;895;-67
2022/06/07 08:12:05;;;;;;;;;;;;;;;;;;5090048;28;1019;-67
2022/06/07 08:14:34;;;;;;;;;;;;;;;;;;5074069;28;1533;-67
2022/06/07 08:17:00;;;;;;;;;;;;;;;;;;5090997;28;1084;-66
2022/06/07 08:19:26;;;;;;;;;;;;;;;;;;5091853;28;1017;-67
2022/06/07 08:21:51;;;;;;;;;;;;;;;;;;5091328;28;971;-66
2022/06/07 08:24:17;;;;;;;;;;;;;;;;;;5090645;28;1315;-66
2022/06/07 08:26:46;;;;;;;;;;;;;;;;;;5090588;28;912;-66
2022/06/07 08:29:12;;;;;;;;;;;;;;;;;;5090434;28;1475;-67
2022/06/07 08:31:38;;;;;;;;;;;;;;;;;;5092169;28;837;-66
2022/06/07 08:39:32;;;;;;;;;;;;;;;;;;5091948;28;654;-66
2022/06/07 08:41:57;;;;;;;;;;;;;;;;;;5089591;28;1062;-66
2022/06/07 08:44:41;;;;;;;;;;;;;;;;;;5090170;28;860;-66
2022/06/07 08:47:26;;;;;;;;;;;;;;;;;;5091026;28;872;-66
2022/06/07 08:49:53;;;;;;;;;;;;;;;;;;5089686;28;1232;-66
2022/06/07 08:52:24;;;;;;;;;;;;;;;;;;5090716;28;861;-66
2022/06/07 08:54:50;;;;;;;;;;;;;;;;;;5090522;28;1906;-66
2022/06/07 08:57:23;;;;;;;;;;;;;;;;;;5090939;28;833;-66
2022/06/07 08:59:51;;;;;;;;;;;;;;;;;;5090758;28;916;-67
2022/06/07 09:02:35;;;;;;;;;;;;;;;;;;5091122;28;860;-67
2022/06/07 09:05:01;;;;;;;;;;;;;;;;;;5090192;28;860;-67
2022/06/07 09:07:26;;;;;;;;;;;;;;;;;;5089349;28;1269;-67
2022/06/07 09:12:40;;;;;;;;;;;;;;;;;;5090874;28;702;-67
2022/06/07 09:15:14;;;;;;;;;;;;;;;;;;5090276;28;2503;-67
2022/06/07 09:17:45;;;;;;;;;;;;;;;;;;5091116;28;951;-67
2022/06/07 09:20:16;;;;;;;;;;;;;;;;;;5090643;28;883;-66
2022/06/07 09:22:48;;;;;;;;;;;;;;;;;;5091041;28;848;-67
2022/06/07 09:25:20;;;;;;;;;;;;;;;;;;5090393;28;1078;-67
2022/06/07 09:27:46;;;;;;;;;;;;;;;;;;5090563;28;805;-66
2022/06/07 09:30:26;;;;;;;;;;;;;;;;;;5091114;28;1061;-67
2022/06/07 09:32:51;;;;;;;;;;;;;;;;;;5090827;28;895;-67
2022/06/07 09:35:35;;;;;;;;;;;;;;;;;;5090862;28;1977;-67
2022/06/07 09:38:17;;;;;;;;;;;;;;;;;;5090606;28;996;-66
2022/06/07 09:40:53;;;;;;;;;;;;;;;;;;5090487;28;864;-66
2022/06/07 09:43:20;;;;;;;;;;;;;;;;;;5090958;28;1018;-67
2022/06/07 09:45:45;;;;;;;;;;;;;;;;;;5090511;28;920;-66
2022/06/07 09:48:24;;;;;;;;;;;;;;;;;;5090848;28;899;-67
2022/06/07 09:50:59;;;;;;;;;;;;;;;;;;5089153;28;1367;-67
2022/06/07 09:53:24;;;;;;;;;;;;;;;;;;5093146;28;860;-67
2022/06/07 09:56:05;;;;;;;;;;;;;;;;;;5093927;28;1946;-66
2022/06/07 09:58:51;;;;;;;;;;;;;;;;;;5092605;28;1380;-67
2022/06/07 10:01:19;;;;;;;;;;;;;;;;;;5094078;28;995;-66
2022/06/07 10:03:44;;;;;;;;;;;;;;;;;;5092537;28;1202;-66
2022/06/07 10:06:13;;;;;;;;;;;;;;;;;;5094389;28;840;-66
2022/06/07 10:08:38;;;;;;;;;;;;;;;;;;5092782;28;1194;-66
2022/06/07 10:11:22;;;;;;;;;;;;;;;;;;5092445;28;1184;-68
2022/06/07 10:13:56;;;;;;;;;;;;;;;;;;5093839;28;1078;-67
2022/06/07 10:16:38;;;;;;;;;;;;;;;;;;5093733;28;1972;-67
2022/06/07 10:19:13;;;;;;;;;;;;;;;;;;5092702;28;1320;-67
2022/06/07 10:21:47;;;;;;;;;;;;;;;;;;5092899;28;1174;-67
2022/06/07 10:24:15;;;;;;;;;;;;;;;;;;5094176;28;852;-67
2022/06/07 10:26:49;;;;;;;;;;;;;;;;;;5095176;28;904;-68
2022/06/07 10:29:34;;;;;;;;;;;;;;;;;;5094554;28;1230;-68
2022/06/07 10:32:19;;;;;;;;;;;;;;;;;;5095841;28;915;-67
2022/06/07 10:34:49;;;;;;;;;;;;;;;;;;5095576;28;1980;-68
2022/06/07 10:37:20;;;;;;;;;;;;;;;;;;5096149;28;848;-68
2022/06/07 10:39:54;;;;;;;;;;;;;;;;;;5095498;28;805;-68
2022/06/07 10:42:38;;;;;;;;;;;;;;;;;;5095682;28;817;-68
2022/06/07 10:45:14;;;;;;;;;;;;;;;;;;5094795;28;1178;-68
2022/06/07 10:47:42;;;;;;;;;;;;;;;;;;5097926;28;821;-68
2022/06/07 10:50:18;;;;;;;;;;;;;;;;;;5098552;28;805;-68
2022/06/07 10:52:59;;;;;;;;;;;;;;;;;;5096552;28;1018;-68
2022/06/07 10:55:30;;;;;;;;;;;;;;;;;;5094736;28;1935;-68
2022/06/07 10:58:00;;;;;;;;;;;;;;;;;;5095089;28;891;-67
2022/06/07 11:00:31;;;;;;;;;;;;;;;;;;5094157;28;849;-68
2022/06/07 11:03:09;;;;;;;;;;;;;;;;;;5092972;28;833;-67
2022/06/07 11:11:09;;;;;;;;;;;;;;;;;;5111790;28;1129;-68
2022/06/07 11:13:43;;;;;;;;;;;;;;;;;;5113249;28;772;-68
2022/06/07 11:16:17;;;;;;;;;;;;;;;;;;5111711;28;1987;-68
2022/06/07 11:18:42;;;;;;;;;;;;;;;;;;5112648;28;777;-68
2022/06/07 11:21:11;;;;;;;;;;;;;;;;;;5111791;28;796;-68
2022/06/07 11:23:47;;;;;;;;;;;;;;;;;;5113415;28;903;-69
2022/06/07 11:26:16;;;;;;;;;;;;;;;;;;5113020;28;837;-69
2022/06/07 11:28:41;;;;;;;;;;;;;;;;;;5111721;28;1248;-68
2022/06/07 11:31:24;;;;;;;;;;;;;;;;;;5112999;28;817;-69
2022/06/07 11:33:53;;;;;;;;;;;;;;;;;;5112796;28;849;-69
2022/06/07 11:36:24;;;;;;;;;;;;;;;;;;5112971;27;1975;-68
2022/06/07 11:41:39;;;;;;;;;;;;;;;;;;5113052;27;843;-69
2022/06/07 11:44:12;;;;;;;;;;;;;;;;;;5112554;28;879;-69
2022/06/07 11:46:57;;;;;;;;;;;;;;;;;;5112846;28;903;-68
2022/06/07 11:49:26;;;;;;;;;;;;;;;;;;5112980;28;883;-68
2022/06/07 11:51:55;;;;;;;;;;;;;;;;;;5112928;28;951;-69
2022/06/07 11:54:23;;;;;;;;;;;;;;;;;;5112912;28;829;-69
2022/06/07 11:56:51;;;;;;;;;;;;;;;;;;5112774;28;1890;-68
2022/06/07 11:59:19;;;;;;;;;;;;;;;;;;5112900;28;813;-69
2022/06/07 12:01:53;;;;;;;;;;;;;;;;;;5112775;28;934;-67
2022/06/07 12:04:28;;;;;;;;;;;;;;;;;;5113364;28;951;-67
2022/06/07 12:06:54;;;;;;;;;;;;;;;;;;5111235;28;1327;-67
2022/06/07 12:09:19;;;;;;;;;;;;;;;;;;5113260;28;689;-67
2022/06/07 12:11:45;;;;;;;;;;;;;;;;;;5111140;28;903;-67
2022/06/07 12:14:18;;;;;;;;;;;;;;;;;;5113157;28;1059;-68
2022/06/07 12:16:51;;;;;;;;;;;;;;;;;;5111955;28;1985;-68
2022/06/07 12:19:21;;;;;;;;;;;;;;;;;;5112601;28;848;-68
2022/06/07 12:21:53;;;;;;;;;;;;;;;;;;5112372;28;879;-68
2022/06/07 12:24:18;;;;;;;;;;;;;;;;;;5112746;28;896;-67
2022/06/07 12:26:47;;;;;;;;;;;;;;;;;;5110712;28;950;-68
2022/06/07 12:29:25;;;;;;;;;;;;;;;;;;5112961;28;910;-67
2022/06/07 12:31:52;;;;;;;;;;;;;;;;;;5111234;28;1304;-68
2022/06/07 12:34:19;;;;;;;;;;;;;;;;;;5112902;28;852;-68
2022/06/07 12:36:49;;;;;;;;;;;;;;;;;;5112062;28;1910;-67
2022/06/07 12:39:15;;;;;;;;;;;;;;;;;;5112081;28;1196;-67
2022/06/07 12:41:52;;;;;;;;;;;;;;;;;;5111119;28;1163;-68
2022/06/07 12:44:22;;;;;;;;;;;;;;;;;;5112170;28;875;-68
2022/06/07 12:46:48;;;;;;;;;;;;;;;;;;5109993;28;1174;-68
2022/06/07 12:49:24;;;;;;;;;;;;;;;;;;5109546;28;1238;-68
2022/06/07 12:51:54;;;;;;;;;;;;;;;;;;5102891;28;1209;-68
2022/06/07 12:54:21;;;;;;;;;;;;;;;;;;5092783;28;1159;-68
2022/06/07 12:56:46;;;;;;;;;;;;;;;;;;5090710;28;1918;-68
2022/06/07 12:59:30;;;;;;;;;;;;;;;;;;5091512;28;794;-68
2022/06/07 13:01:57;;;;;;;;;;;;;;;;;;5091128;28;773;-67
2022/06/07 13:04:30;;;;;;;;;;;;;;;;;;5091969;28;851;-67
2022/06/07 13:07:03;;;;;;;;;;;;;;;;;;5091311;28;773;-67
2022/06/07 13:09:29;;;;;;;;;;;;;;;;;;5091375;28;911;-67
2022/06/07 13:11:56;;;;;;;;;;;;;;;;;;5089527;28;1352;-67
2022/06/07 13:14:22;;;;;;;;;;;;;;;;;;5091070;28;777;-68
2022/06/07 13:16:48;;;;;;;;;;;;;;;;;;5088915;28;1982;-67
2022/06/07 13:19:17;;;;;;;;;;;;;;;;;;5089729;28;912;-67
2022/06/07 13:21:59;;;;;;;;;;;;;;;;;;5090642;28;853;-67
2022/06/07 13:24:26;;;;;;;;;;;;;;;;;;5091118;28;856;-67
2022/06/07 13:26:59;;;;;;;;;;;;;;;;;;5090842;28;928;-67
2022/06/07 13:29:27;;;;;;;;;;;;;;;;;;5094315;28;1241;-67
2022/06/07 13:31:54;;;;;;;;;;;;;;;;;;5094888;28;1026;-67
2022/06/07 13:34:28;;;;;;;;;;;;;;;;;;5093834;28;1286;-67
2022/06/07 13:37:02;;;;;;;;;;;;;;;;;;5094762;28;1966;-67
2022/06/07 13:39:28;;;;;;;;;;;;;;;;;;5095683;28;972;-67
2022/06/07 13:42:01;;;;;;;;;;;;;;;;;;5095337;28;829;-66
2022/06/07 13:44:28;;;;;;;;;;;;;;;;;;5095933;28;927;-67
2022/06/07 13:46:55;;;;;;;;;;;;;;;;;;5093114;28;1547;-67
2022/06/07 13:55:04;;;;;;;;;;;;;;;;;;5094857;28;1981;-68
2022/06/07 13:57:29;;;;;;;;;;;;;;;;;;5093465;28;1451;-66
2022/06/07 13:59:54;;;;;;;;;;;;;;;;;;5093862;28;904;-66
2022/06/07 14:02:20;;;;;;;;;;;;;;;;;;5095054;28;770;-67
2022/06/07 14:04:46;;;;;;;;;;;;;;;;;;5092544;28;1370;-67
2022/06/07 14:07:12;;;;;;;;;;;;;;;;;;5093216;28;1681;-67
2022/06/07 14:09:37;;;;;;;;;;;;;;;;;;5093212;28;1341;-67
2022/06/07 14:12:04;;;;;;;;;;;;;;;;;;5092354;28;1054;-67
2022/06/07 14:14:29;;;;;;;;;;;;;;;;;;5092860;28;1218;-67
2022/06/07 14:16:56;;;;;;;;;;;;;;;;;;5094426;28;1906;-66
2022/06/07 14:19:24;;;;;;;;;;;;;;;;;;5094365;28;1074;-67
2022/06/07 14:21:50;;;;;;;;;;;;;;;;;;5093861;28;832;-67
2022/06/07 14:24:20;;;;;;;;;;;;;;;;;;5094844;28;922;-69
2022/06/07 14:26:46;;;;;;;;;;;;;;;;;;5093887;28;872;-68
2022/06/07 14:29:12;;;;;;;;;;;;;;;;;;5094180;28;881;-68
2022/06/07 14:31:38;;;;;;;;;;;;;;;;;;5094211;28;793;-67
2022/06/07 14:34:04;;;;;;;;;;;;;;;;;;5093830;28;1098;-68
2022/06/07 14:36:29;;;;;;;;;;;;;;;;;;5092677;28;1901;-68
2022/06/07 14:38:54;;;;;;;;;;;;;;;;;;5093066;28;927;-68
2022/06/07 14:41:20;;;;;;;;;;;;;;;;;;5093970;28;825;-68
2022/06/07 14:43:45;;;;;;;;;;;;;;;;;;5091975;28;959;-68
2022/06/07 14:46:20;;;;;;;;;;;;;;;;;;5092724;28;979;-68
2022/06/07 14:48:47;;;;;;;;;;;;;;;;;;5093152;28;860;-67
2022/06/07 14:51:17;;;;;;;;;;;;;;;;;;5092413;28;839;-68
2022/06/07 14:53:43;;;;;;;;;;;;;;;;;;5093477;28;892;-68
2022/06/07 14:56:09;;;;;;;;;;;;;;;;;;5091924;28;1973;-68
2022/06/07 14:58:35;;;;;;;;;;;;;;;;;;5093410;28;863;-68
2022/06/07 15:01:00;;;;;;;;;;;;;;;;;;5092948;28;828;-68
2022/06/07 15:03:26;;;;;;;;;;;;;;;;;;5092138;28;1310;-67
2022/06/07 15:05:53;;;;;;;;;;;;;;;;;;5091538;28;1206;-68
2022/06/07 15:08:19;;;;;;;;;;;;;;;;;;5092988;28;1159;-66
2022/06/07 15:10:44;;;;;;;;;;;;;;;;;;5093376;28;890;-66
2022/06/07 15:13:16;;;;;;;;;;;;;;;;;;5092280;28;1582;-66
2022/06/07 15:15:42;;;;;;;;;;;;;;;;;;5091167;28;1967;-66
2022/06/07 15:18:07;;;;;;;;;;;;;;;;;;5092382;28;911;-66
2022/06/07 15:20:37;;;;;;;;;;;;;;;;;;5074825;28;1318;-66
2022/06/07 15:23:05;;;;;;;;;;;;;;;;;;5091628;28;1232;-67
2022/06/07 15:25:31;;;;;;;;;;;;;;;;;;5093041;28;1030;-66
2022/06/07 15:27:57;;;;;;;;;;;;;;;;;;5091054;28;1339;-68
2022/06/07 15:30:23;;;;;;;;;;;;;;;;;;5091367;28;895;-66
2022/06/07 15:32:50;;;;;;;;;;;;;;;;;;5091000;28;887;-66
2022/06/07 15:35:19;;;;;;;;;;;;;;;;;;5091425;28;1902;-66
2022/06/07 15:37:45;;;;;;;;;;;;;;;;;;5090780;28;1226;-66
2022/06/07 15:40:10;;;;;;;;;;;;;;;;;;5091027;28;1194;-66
2022/06/07 15:42:48;;;;;;;;;;;;;;;;;;5092541;28;1691;-66
2022/06/07 15:45:16;;;;;;;;;;;;;;;;;;5091620;28;817;-66
2022/06/07 15:47:42;;;;;;;;;;;;;;;;;;5092167;28;868;-66
2022/06/07 15:50:10;;;;;;;;;;;;;;;;;;5090746;28;1160;-67
2022/06/07 15:52:36;;;;;;;;;;;;;;;;;;5091192;28;1156;-66
2022/06/07 15:55:02;;;;;;;;;;;;;;;;;;5106419;28;1955;-67
2022/06/07 16:00:11;;;;;;;;;;;;;;;;;;5113140;28;824;-68
2022/06/07 16:02:37;;;;;;;;;;;;;;;;;;5113375;28;990;-68
2022/06/07 16:05:02;;;;;;;;;;;;;;;;;;5112559;28;1062;-67
2022/06/07 16:07:27;;;;;;;;;;;;;;;;;;5112819;28;928;-68
2022/06/07 16:09:53;;;;;;;;;;;;;;;;;;5111819;28;903;-68
2022/06/07 16:12:18;;;;;;;;;;;;;;;;;;5112646;28;963;-67
2022/06/07 16:14:43;;;;;;;;;;;;;;;;;;5112654;28;1076;-68
2022/06/07 16:17:09;;;;;;;;;;;;;;;;;;5110917;28;1966;-68
2022/06/07 16:19:35;;;;;;;;;;;;;;;;;;5112047;28;785;-68
2022/06/07 16:22:00;;;;;;;;;;;;;;;;;;5111719;28;688;-68
2022/06/07 16:24:26;;;;;;;;;;;;;;;;;;5110736;28;754;-68
2022/06/07 16:26:51;;;;;;;;;;;;;;;;;;5112194;28;837;-68
2022/06/07 16:34:44;;;;;;;;;;;;;;;;;;5112727;28;704;-68
2022/06/07 16:37:10;;;;;;;;;;;;;;;;;;5111258;28;1961;-68
2022/06/07 16:39:36;;;;;;;;;;;;;;;;;;5111143;28;1467;-68
2022/06/07 16:42:01;;;;;;;;;;;;;;;;;;5112483;28;903;-68
2022/06/07 16:44:26;;;;;;;;;;;;;;;;;;5112396;28;915;-68
2022/06/07 16:46:55;;;;;;;;;;;;;;;;;;5110484;28;1269;-68
2022/06/07 16:49:20;;;;;;;;;;;;;;;;;;5112470;28;844;-68
2022/06/07 16:51:46;;;;;;;;;;;;;;;;;;5112117;28;840;-68
2022/06/07 16:54:11;;;;;;;;;;;;;;;;;;5112102;28;828;-68
2022/06/07 16:56:38;;;;;;;;;;;;;;;;;;5112757;28;1909;-68
2022/06/07 16:59:06;;;;;;;;;;;;;;;;;;5113716;28;801;-68
2022/06/07 17:01:32;;;;;;;;;;;;;;;;;;5115226;28;812;-69
2022/06/07 17:03:57;;;;;;;;;;;;;;;;;;5113366;28;974;-69
2022/06/07 17:06:22;;;;;;;;;;;;;;;;;;5112723;28;1107;-68
2022/06/07 17:08:48;;;;;;;;;;;;;;;;;;5112466;28;1038;-68
2022/06/07 17:11:14;;;;;;;;;;;;;;;;;;5112915;28;1062;-68
2022/06/07 17:13:39;;;;;;;;;;;;;;;;;;5112612;28;891;-68
2022/06/07 17:16:05;;;;;;;;;;;;;;;;;;5113508;28;1992;-69
2022/06/07 17:18:30;;;;;;;;;;;;;;;;;;5111769;28;1198;-68
2022/06/07 17:20:55;;;;;;;;;;;;;;;;;;5112252;28;1438;-68
2022/06/07 17:23:21;;;;;;;;;;;;;;;;;;5112946;28;832;-68
2022/06/07 17:25:47;;;;;;;;;;;;;;;;;;5111408;28;1304;-68
2022/06/07 17:28:13;;;;;;;;;;;;;;;;;;5111414;28;1237;-68
2022/06/07 17:30:39;;;;;;;;;;;;;;;;;;5113553;28;852;-68
2022/06/07 17:33:04;;;;;;;;;;;;;;;;;;5113004;28;805;-68
2022/06/07 17:35:30;;;;;;;;;;;;;;;;;;5113305;28;1897;-68
2022/06/07 17:37:55;;;;;;;;;;;;;;;;;;5111962;28;832;-68
2022/06/07 17:40:25;;;;;;;;;;;;;;;;;;5112009;28;821;-68
2022/06/07 17:42:51;;;;;;;;;;;;;;;;;;5112749;28;828;-68
2022/06/07 17:45:16;;;;;;;;;;;;;;;;;;5111658;28;912;-68
2022/06/07 17:47:42;;;;;;;;;;;;;;;;;;5112610;28;887;-69
2022/06/07 17:50:09;;;;;;;;;;;;;;;;;;5111192;28;845;-69
2022/06/07 17:52:35;;;;;;;;;;;;;;;;;;5107210;28;1729;-68
2022/06/07 17:55:01;;;;;;;;;;;;;;;;;;5106521;28;1922;-69
2022/06/07 17:57:26;;;;;;;;;;;;;;;;;;5091399;28;1159;-69